Time;durP1;ratioP1;P1;durP2;ratioP2;P2;SDS_P1;SDS_P2;PMS_P1;PMS_P2;Temp;Humidity;BMP_temperature;BMP_pressure;BME280_temperature;BME280_humidity;BME280_pressure;Samples;Min_cycle;Max_cycle;Signal;HPM_P1;HPM_P2
2022/03/25 00:00:25;;;;;;;115.40;51.65;;;6.00;99.90;;;;;;4863444;29;20462;-82
2022/03/25 00:02:52;;;;;;;116.70;53.47;;;6.10;99.90;;;;;;4897217;29;20076;-82
2022/03/25 00:05:19;;;;;;;115.30;51.63;;;5.90;99.90;;;;;;4878190;29;20517;-82
2022/03/25 00:07:44;;;;;;;113.40;52.42;;;5.90;99.90;;;;;;4878470;29;20048;-82
2022/03/25 00:10:10;;;;;;;121.72;53.92;;;6.20;99.90;;;;;;4877699;29;20091;-82
2022/03/25 00:12:36;;;;;;;118.65;52.00;;;5.90;99.90;;;;;;4877759;29;20089;-82
2022/03/25 00:15:02;;;;;;;106.13;48.65;;;6.00;99.90;;;;;;4888840;29;20131;-82
2022/03/25 00:17:27;;;;;;;117.60;54.17;;;5.80;99.90;;;;;;4896898;29;20694;-82
2022/03/25 00:19:53;;;;;;;116.75;50.67;;;5.80;99.90;;;;;;4915832;29;20115;-82
2022/03/25 00:22:19;;;;;;;118.15;53.83;;;6.20;99.90;;;;;;4915044;29;20052;-82
2022/03/25 00:24:45;;;;;;;118.20;54.67;;;6.20;99.90;;;;;;4897563;29;20049;-82
2022/03/25 00:27:11;;;;;;;123.18;53.90;;;5.70;99.90;;;;;;4880165;29;20604;-82
2022/03/25 00:29:37;;;;;;;111.20;50.70;;;5.70;99.90;;;;;;4897642;29;20101;-82
2022/03/25 00:32:03;;;;;;;117.90;53.92;;;6.00;99.90;;;;;;4881467;29;20048;-82
2022/03/25 00:34:29;;;;;;;116.18;52.13;;;5.70;99.90;;;;;;4891858;29;20048;-82
2022/03/25 00:36:55;;;;;;;120.90;53.45;;;5.70;99.90;;;;;;4893532;29;20067;-82
2022/03/25 00:39:21;;;;;;;116.82;52.60;;;6.20;99.90;;;;;;4897243;29;20052;-82
2022/03/25 00:41:47;;;;;;;113.85;50.92;;;5.60;99.90;;;;;;4880635;29;20672;-81
2022/03/25 00:44:13;;;;;;;;;;;6.10;99.90;;;;;;4898688;29;20053;-82
2022/03/25 00:46:39;;;;;;;112.75;52.03;;;5.50;99.90;;;;;;4881767;29;19943;-82
2022/03/25 00:49:05;;;;;;;116.85;51.58;;;5.50;99.90;;;;;;4865273;29;20507;-82
2022/03/25 00:51:31;;;;;;;115.97;52.42;;;5.50;99.90;;;;;;4897182;29;20051;-82
2022/03/25 00:53:57;;;;;;;122.15;54.58;;;5.80;99.90;;;;;;4896359;29;20052;-82
2022/03/25 00:56:24;;;;;;;119.38;52.72;;;5.50;99.90;;;;;;4896679;29;20052;-82
2022/03/25 00:58:50;;;;;;;122.65;55.83;;;5.70;99.90;;;;;;4887526;29;20048;-82
2022/03/25 01:01:16;;;;;;;120.45;54.22;;;5.50;99.90;;;;;;4915425;29;20127;-82
2022/03/25 01:03:43;;;;;;;114.53;51.72;;;5.50;99.90;;;;;;4883869;29;20135;-82
2022/03/25 01:06:09;;;;;;;121.88;52.75;;;5.40;99.90;;;;;;4883847;29;20052;-81
2022/03/25 01:08:35;;;;;;;121.40;52.83;;;5.40;99.90;;;;;;4899797;29;20111;-82
2022/03/25 01:11:04;;;;;;;112.95;50.85;;;5.60;99.90;;;;;;4914748;29;20431;-82
2022/03/25 01:13:33;;;;;;;112.90;50.90;;;5.40;99.90;;;;;;4914643;29;20048;-82
2022/03/25 01:16:05;;;;;;;108.45;50.88;;;5.40;99.90;;;;;;4884316;29;20044;-82
2022/03/25 01:18:30;;;;;;;109.18;48.08;;;5.30;99.90;;;;;;4899380;29;20052;-82
2022/03/25 01:20:57;;;;;;;109.13;50.92;;;5.30;99.90;;;;;;4915446;29;20123;-82
2022/03/25 01:23:23;;;;;;;107.88;49.90;;;6.00;99.90;;;;;;4910735;29;20111;-82
2022/03/25 01:25:49;;;;;;;99.53;46.53;;;5.10;99.90;;;;;;4899391;29;20048;-82
2022/03/25 01:28:15;;;;;;;118.05;44.35;;;5.10;99.90;;;;;;4906780;29;20056;-82
2022/03/25 01:30:42;;;;;;;232.80;44.42;;;5.40;99.90;;;;;;4880452;29;20044;-82
2022/03/25 01:33:09;;;;;;;159.43;44.35;;;4.90;99.90;;;;;;4879864;29;20100;-82
2022/03/25 01:35:35;;;;;;;110.15;41.15;;;4.80;99.90;;;;;;4896613;29;20052;-83
2022/03/25 01:38:01;;;;;;;;;;;4.60;99.90;;;;;;4881978;29;20056;-83
2022/03/25 01:40:27;;;;;;;364.35;45.42;;;4.50;99.90;;;;;;4895984;29;19928;-83
2022/03/25 01:42:53;;;;;;;186.10;39.85;;;5.00;99.90;;;;;;4873102;29;20107;-83
2022/03/25 01:45:34;;;;;;;177.98;40.83;;;4.40;99.90;;;;;;4909741;29;20063;-83
2022/03/25 01:48:02;;;;;;;113.22;38.65;;;4.30;99.90;;;;;;4910822;29;20063;-83
2022/03/25 01:50:29;;;;;;;120.03;39.45;;;4.20;99.90;;;;;;4912567;29;20095;-83
2022/03/25 01:52:55;;;;;;;327.92;45.67;;;4.20;99.90;;;;;;4895861;29;20059;-83
2022/03/25 01:55:26;;;;;;;235.82;42.47;;;4.20;99.90;;;;;;4895094;29;20129;-83
2022/03/25 01:57:56;;;;;;;125.55;39.88;;;4.90;99.90;;;;;;4898226;29;20055;-83
2022/03/25 02:00:23;;;;;;;102.40;39.97;;;4.00;99.90;;;;;;4913547;29;20040;-83
2022/03/25 02:02:50;;;;;;;125.03;40.72;;;4.00;99.90;;;;;;4913207;29;20054;-83
2022/03/25 02:05:17;;;;;;;163.38;41.50;;;4.00;99.90;;;;;;4897675;29;20083;-82
2022/03/25 02:07:43;;;;;;;418.13;47.28;;;4.80;99.90;;;;;;4914553;29;20055;-83
2022/03/25 02:10:08;;;;;;;428.80;51.88;;;4.00;99.90;;;;;;4903287;29;20558;-83
2022/03/25 02:12:38;;;;;;;235.80;43.90;;;4.00;99.90;;;;;;4879992;29;20056;-83
2022/03/25 02:15:05;;;;;;;422.05;49.88;;;3.90;99.90;;;;;;4914179;29;20059;-83
2022/03/25 02:17:32;;;;;;;391.90;45.95;;;3.90;99.90;;;;;;4914095;29;20409;-83
2022/03/25 02:19:58;;;;;;;373.67;47.72;;;4.00;99.90;;;;;;4914278;29;20111;-83
2022/03/25 02:22:24;;;;;;;359.77;45.13;;;4.00;99.90;;;;;;4897870;29;20077;-83
2022/03/25 02:24:50;;;;;;;;;;;3.90;99.90;;;;;;4914500;29;20054;-83
2022/03/25 02:27:17;;;;;;;418.73;46.88;;;3.90;99.90;;;;;;4909849;29;20013;-83
2022/03/25 02:29:45;;;;;;;258.95;41.90;;;3.90;99.90;;;;;;4909254;29;20048;-82
2022/03/25 02:32:12;;;;;;;491.45;53.28;;;3.90;99.90;;;;;;4897320;29;20051;-82
2022/03/25 02:34:38;;;;;;;350.80;43.35;;;3.90;99.90;;;;;;4880392;29;20045;-82
2022/03/25 02:37:07;;;;;;;376.60;46.55;;;3.80;99.90;;;;;;4882343;29;20148;-82
2022/03/25 02:39:33;;;;;;;313.25;40.97;;;3.80;99.90;;;;;;4883125;29;20083;-82
2022/03/25 02:41:58;;;;;;;213.07;40.28;;;4.20;99.90;;;;;;4896187;29;20095;-82
2022/03/25 02:44:25;;;;;;;292.15;45.67;;;3.80;99.90;;;;;;4913190;29;20047;-82
2022/03/25 02:46:51;;;;;;;214.60;42.35;;;3.70;99.90;;;;;;4898275;29;20055;-83
2022/03/25 02:49:18;;;;;;;244.00;44.80;;;3.80;99.90;;;;;;4912982;29;20052;-81
2022/03/25 02:51:43;;;;;;;219.82;42.47;;;3.70;99.90;;;;;;4894573;29;20045;-80
2022/03/25 02:54:09;;;;;;;275.23;45.15;;;3.70;99.90;;;;;;4878740;29;20103;-81
2022/03/25 02:56:35;;;;;;;200.45;43.47;;;3.80;99.90;;;;;;4878672;29;20051;-80
2022/03/25 02:59:00;;;;;;;418.67;48.90;;;3.80;99.90;;;;;;4893911;29;20064;-80
2022/03/25 03:01:27;;;;;;;441.25;46.13;;;4.00;99.90;;;;;;4879040;29;20056;-80
2022/03/25 03:03:53;;;;;;;;;;;3.80;99.90;;;;;;4895932;29;20048;-81
2022/03/25 03:06:19;;;;;;;481.33;48.63;;;4.20;99.90;;;;;;4913058;29;19930;-81
2022/03/25 03:08:45;;;;;;;278.52;42.47;;;3.70;99.90;;;;;;4913274;29;20052;-81
2022/03/25 03:11:11;;;;;;;421.80;46.70;;;4.50;99.90;;;;;;4912757;29;20505;-81
2022/03/25 03:13:38;;;;;;;;;;;3.80;99.90;;;;;;4897282;29;20436;-81
2022/03/25 03:16:04;;;;;;;466.25;47.85;;;3.80;99.90;;;;;;4913731;29;20395;-81
2022/03/25 03:18:30;;;;;;;486.52;48.83;;;3.80;99.90;;;;;;4904260;29;20048;-81
2022/03/25 03:20:56;;;;;;;477.85;48.83;;;3.80;99.90;;;;;;4867993;29;20049;-81
2022/03/25 03:23:21;;;;;;;461.13;48.25;;;3.80;99.90;;;;;;4902226;29;20044;-81
2022/03/25 03:25:47;;;;;;;568.90;54.45;;;3.80;99.90;;;;;;4863028;29;20053;-81
2022/03/25 03:28:13;;;;;;;441.90;47.00;;;3.80;99.90;;;;;;4892906;29;20490;-81
2022/03/25 03:30:39;;;;;;;384.45;45.42;;;3.80;99.90;;;;;;4893883;29;20131;-81
2022/03/25 03:33:05;;;;;;;445.35;48.28;;;3.80;99.90;;;;;;4894095;29;20164;-81
2022/03/25 03:35:34;;;;;;;340.08;44.60;;;3.80;99.90;;;;;;4893714;29;20063;-81
2022/03/25 03:38:01;;;;;;;385.75;46.15;;;3.80;99.90;;;;;;4900531;29;20048;-81
2022/03/25 03:40:26;;;;;;;340.05;43.90;;;3.90;99.90;;;;;;4896562;29;20402;-81
2022/03/25 03:42:52;;;;;;;491.20;54.03;;;4.10;99.90;;;;;;4912091;29;20041;-81
2022/03/25 03:45:18;;;;;;;393.67;47.33;;;3.90;99.90;;;;;;4894185;29;20143;-81
2022/03/25 03:47:45;;;;;;;449.10;49.88;;;3.90;99.90;;;;;;4862835;29;20084;-81
2022/03/25 03:50:14;;;;;;;410.38;46.25;;;3.90;99.90;;;;;;4888012;29;20143;-81
2022/03/25 03:52:40;;;;;;;432.00;50.17;;;3.90;99.90;;;;;;4913175;29;20048;-81
2022/03/25 03:55:08;;;;;;;413.00;50.72;;;4.10;99.90;;;;;;4900597;29;20450;-81
2022/03/25 03:57:35;;;;;;;530.33;54.97;;;3.90;99.90;;;;;;4911061;29;20116;-81
2022/03/25 04:00:06;;;;;;;422.33;49.92;;;3.90;99.90;;;;;;4898258;29;20048;-81
2022/03/25 04:02:32;;;;;;;511.83;54.78;;;3.90;99.90;;;;;;4896791;29;20048;-81
2022/03/25 04:04:57;;;;;;;330.75;45.95;;;4.50;99.90;;;;;;4900537;29;20075;-81
2022/03/25 04:07:23;;;;;;;407.38;51.72;;;3.90;99.90;;;;;;4881796;29;20059;-81
2022/03/25 04:09:49;;;;;;;433.23;52.10;;;4.30;99.90;;;;;;4882262;29;20471;-81
2022/03/25 04:12:15;;;;;;;307.70;46.03;;;3.90;99.90;;;;;;4874400;29;20195;-81
2022/03/25 04:14:40;;;;;;;408.15;49.65;;;4.00;99.90;;;;;;4916891;29;20039;-81
2022/03/25 04:17:07;;;;;;;339.70;51.65;;;4.40;99.90;;;;;;4916590;29;20044;-81
2022/03/25 04:19:32;;;;;;;408.20;51.85;;;3.90;99.90;;;;;;4915853;29;20111;-81
2022/03/25 04:21:58;;;;;;;372.67;50.17;;;5.20;99.90;;;;;;4916145;29;20048;-81
2022/03/25 04:24:24;;;;;;;356.50;47.17;;;4.10;99.90;;;;;;4896426;29;20088;-81
2022/03/25 04:26:50;;;;;;;422.92;50.83;;;3.90;99.90;;;;;;4880515;29;20092;-81
2022/03/25 04:29:15;;;;;;;437.60;51.45;;;4.50;99.90;;;;;;4912826;29;20414;-81
2022/03/25 04:31:41;;;;;;;372.60;46.60;;;4.60;99.90;;;;;;4890106;29;20048;-81
2022/03/25 04:34:07;;;;;;;271.73;45.70;;;3.90;99.90;;;;;;4881434;29;20055;-81
2022/03/25 04:36:34;;;;;;;357.13;46.03;;;3.80;99.90;;;;;;4896358;29;20056;-81
2022/03/25 04:38:59;;;;;;;333.50;44.38;;;4.60;99.90;;;;;;4881718;29;20052;-81
2022/03/25 04:41:25;;;;;;;371.23;49.95;;;3.70;99.90;;;;;;4914253;29;20915;-81
2022/03/25 04:43:51;;;;;;;290.73;46.70;;;3.70;99.90;;;;;;4897386;29;20040;-81
2022/03/25 04:46:17;;;;;;;334.23;48.50;;;3.90;99.90;;;;;;4899749;29;20052;-81
2022/03/25 04:48:43;;;;;;;320.02;44.75;;;4.20;99.90;;;;;;4899974;29;20059;-81
2022/03/25 04:51:09;;;;;;;406.90;49.25;;;4.20;99.90;;;;;;4915350;29;20501;-81
2022/03/25 04:53:38;;;;;;;264.73;45.20;;;3.60;99.90;;;;;;4895779;29;20059;-81
2022/03/25 04:56:04;;;;;;;211.07;43.50;;;3.50;99.90;;;;;;4896788;29;20063;-81
2022/03/25 04:58:30;;;;;;;274.40;45.72;;;3.60;99.90;;;;;;4898744;29;20052;-81
2022/03/25 05:00:56;;;;;;;;;;;3.60;99.90;;;;;;4900714;29;20056;-81
2022/03/25 05:03:22;;;;;;;239.00;43.65;;;3.60;99.90;;;;;;4913635;29;19923;-81
2022/03/25 05:05:48;;;;;;;231.77;41.65;;;3.70;99.90;;;;;;4911685;29;20092;-81
2022/03/25 05:08:15;;;;;;;287.85;46.30;;;4.20;99.90;;;;;;4912470;29;20056;-81
2022/03/25 05:10:41;;;;;;;221.20;42.72;;;3.60;99.90;;;;;;4896699;29;20108;-82
2022/03/25 05:13:08;;;;;;;187.73;42.20;;;4.40;99.90;;;;;;4883124;29;20773;-82
2022/03/25 05:15:35;;;;;;;223.98;41.10;;;3.50;99.90;;;;;;4903967;29;20063;-81
2022/03/25 05:18:00;;;;;;;;;;;3.50;99.90;;;;;;4880771;29;20562;-82
2022/03/25 05:20:26;;;;;;;192.95;40.47;;;3.50;99.90;;;;;;4895880;29;20018;-82
2022/03/25 05:22:52;;;;;;;203.52;40.22;;;3.90;99.90;;;;;;4880683;29;20092;-82
2022/03/25 05:25:19;;;;;;;132.23;39.08;;;3.50;99.90;;;;;;4864937;29;20064;-82
2022/03/25 05:27:51;;;;;;;141.20;38.53;;;3.80;99.90;;;;;;4906560;29;20091;-81
2022/03/25 05:30:20;;;;;;;143.32;38.15;;;3.40;99.90;;;;;;4913034;29;20059;-81
2022/03/25 05:32:47;;;;;;;101.53;38.28;;;3.30;99.90;;;;;;4914784;29;20106;-82
2022/03/25 05:35:12;;;;;;;120.55;37.17;;;4.20;99.90;;;;;;4914904;29;20084;-81
2022/03/25 05:37:39;;;;;;;142.48;37.35;;;3.30;99.90;;;;;;4914643;29;20540;-81
2022/03/25 05:40:06;;;;;;;162.02;38.22;;;3.30;99.90;;;;;;4906245;29;20057;-82
2022/03/25 05:42:33;;;;;;;142.68;36.58;;;3.20;99.90;;;;;;4863444;29;20450;-81
2022/03/25 05:44:58;;;;;;;;;;;3.50;99.90;;;;;;4865558;29;20092;-82
2022/03/25 05:47:24;;;;;;;185.00;37.72;;;3.90;99.90;;;;;;4895263;29;19967;-81
2022/03/25 05:49:50;;;;;;;182.52;37.88;;;3.10;99.90;;;;;;4880563;29;20059;-82
2022/03/25 05:52:16;;;;;;;123.93;37.65;;;3.10;99.90;;;;;;4897085;29;20049;-82
2022/03/25 05:54:42;;;;;;;;;;;3.10;99.90;;;;;;4864976;29;20036;-82
2022/03/25 05:57:08;;;;;;;153.43;36.08;;;3.10;99.90;;;;;;4879120;29;19935;-82
2022/03/25 05:59:34;;;;;;;198.90;38.22;;;3.50;99.90;;;;;;4907325;29;20086;-82
2022/03/25 06:02:00;;;;;;;;;;;3.10;99.90;;;;;;4914471;29;20048;-82
2022/03/25 06:04:25;;;;;;;125.10;37.08;;;3.10;99.90;;;;;;4913223;29;19953;-82
2022/03/25 06:06:51;;;;;;;172.75;39.10;;;3.10;99.90;;;;;;4895593;29;20048;-82
2022/03/25 06:09:17;;;;;;;231.45;39.58;;;3.10;99.90;;;;;;4879896;29;20052;-84
2022/03/25 06:11:42;;;;;;;158.90;36.97;;;3.10;99.90;;;;;;4878703;29;20057;-84
2022/03/25 06:14:08;;;;;;;144.25;36.28;;;3.20;99.90;;;;;;4901616;29;20048;-84
2022/03/25 06:16:34;;;;;;;266.17;42.00;;;3.20;99.90;;;;;;4890827;29;20051;-84
2022/03/25 06:18:59;;;;;;;165.13;37.75;;;3.20;99.90;;;;;;4882811;29;20056;-84
2022/03/25 06:21:26;;;;;;;137.43;37.30;;;3.20;99.90;;;;;;4898414;29;20732;-82
2022/03/25 06:23:52;;;;;;;162.95;36.92;;;3.20;99.90;;;;;;4898148;29;20059;-82
2022/03/25 06:26:18;;;;;;;182.43;36.78;;;3.80;99.90;;;;;;4913880;29;20764;-82
2022/03/25 06:28:44;;;;;;;160.32;37.63;;;3.20;99.90;;;;;;4905817;29;20151;-81
2022/03/25 06:31:10;;;;;;;103.07;35.03;;;4.30;99.90;;;;;;4871937;29;20139;-82
2022/03/25 06:33:37;;;;;;;124.03;34.67;;;4.20;99.90;;;;;;4863141;29;20554;-82
2022/03/25 06:36:04;;;;;;;128.95;35.13;;;3.30;99.90;;;;;;4879270;29;20056;-82
2022/03/25 06:38:30;;;;;;;163.35;38.38;;;3.30;99.90;;;;;;4911667;29;20072;-81
2022/03/25 06:40:56;;;;;;;139.25;36.90;;;3.30;99.90;;;;;;4903209;29;20056;-82
2022/03/25 06:43:21;;;;;;;85.25;36.10;;;3.40;99.90;;;;;;4881568;29;20052;-82
2022/03/25 06:45:47;;;;;;;101.20;35.83;;;3.50;99.90;;;;;;4897819;29;20052;-82
2022/03/25 06:48:13;;;;;;;97.88;34.05;;;3.50;99.90;;;;;;4913543;29;20138;-82
2022/03/25 06:50:39;;;;;;;85.53;34.25;;;3.60;99.90;;;;;;4882105;29;20154;-82
2022/03/25 06:53:05;;;;;;;69.45;33.92;;;3.60;99.90;;;;;;4898162;29;20150;-82
2022/03/25 06:55:32;;;;;;;64.60;33.30;;;3.60;99.90;;;;;;4893626;29;20086;-82
2022/03/25 06:57:58;;;;;;;63.72;33.78;;;3.60;99.90;;;;;;4901886;29;20052;-82
2022/03/25 07:00:24;;;;;;;64.15;34.95;;;3.60;99.90;;;;;;4879481;29;20047;-82
2022/03/25 07:02:51;;;;;;;66.15;33.45;;;3.60;99.90;;;;;;4905592;29;20253;-81
2022/03/25 07:05:17;;;;;;;67.82;34.45;;;3.70;99.90;;;;;;4882405;29;20064;-82
2022/03/25 07:07:44;;;;;;;71.03;35.40;;;4.30;99.90;;;;;;4896606;29;20513;-82
2022/03/25 07:10:12;;;;;;;65.50;33.95;;;3.80;99.90;;;;;;4881619;29;20405;-82
2022/03/25 07:12:39;;;;;;;72.47;36.20;;;3.80;99.90;;;;;;4896312;29;20461;-82
2022/03/25 07:15:07;;;;;;;70.78;35.92;;;3.90;99.90;;;;;;4912906;29;20099;-82
2022/03/25 07:17:33;;;;;;;70.00;34.55;;;3.90;99.90;;;;;;4911930;29;20048;-82
2022/03/25 07:20:00;;;;;;;69.47;35.45;;;3.90;99.90;;;;;;4897785;29;20051;-82
2022/03/25 07:22:26;;;;;;;75.00;35.65;;;4.90;99.90;;;;;;4903322;29;20092;-82
2022/03/25 07:24:52;;;;;;;70.82;35.30;;;4.10;99.90;;;;;;4878406;29;20086;-82
2022/03/25 07:27:18;;;;;;;70.97;36.15;;;4.10;99.90;;;;;;4883501;29;20079;-82
2022/03/25 07:29:43;;;;;;;73.32;36.75;;;4.20;99.90;;;;;;4912686;29;20485;-83
2022/03/25 07:32:09;;;;;;;75.15;36.88;;;4.30;99.90;;;;;;4897440;29;20052;-83
2022/03/25 07:34:37;;;;;;;73.35;36.25;;;4.40;99.90;;;;;;4903545;29;20059;-84
2022/03/25 07:37:04;;;;;;;75.32;36.92;;;4.50;99.90;;;;;;4863811;29;20064;-83
2022/03/25 07:39:30;;;;;;;76.05;37.63;;;4.60;99.90;;;;;;4886709;29;20048;-83
2022/03/25 07:41:57;;;;;;;78.55;38.35;;;4.60;99.90;;;;;;4874193;29;20116;-83
2022/03/25 07:44:23;;;;;;;81.40;39.95;;;5.50;99.90;;;;;;4896953;29;20494;-83
2022/03/25 07:46:49;;;;;;;77.40;38.38;;;5.30;99.90;;;;;;4868217;29;20052;-84
2022/03/25 07:49:15;;;;;;;;;;;5.50;99.90;;;;;;4877964;29;20072;-85
2022/03/25 07:51:41;;;;;;;83.55;37.28;;;5.30;99.90;;;;;;4897603;29;19970;-84
2022/03/25 07:54:07;;;;;;;84.97;39.25;;;5.90;99.90;;;;;;4880174;29;20524;-84
2022/03/25 07:56:33;;;;;;;85.00;39.70;;;5.10;99.90;;;;;;4899324;29;20073;-85
2022/03/25 07:59:03;;;;;;;84.15;38.63;;;5.20;99.90;;;;;;4878064;29;20067;-84
2022/03/25 08:01:29;;;;;;;86.47;39.08;;;5.40;99.90;;;;;;4892435;29;20044;-84
2022/03/25 08:03:55;;;;;;;81.80;37.65;;;6.10;99.90;;;;;;4879234;29;20048;-84
2022/03/25 08:06:22;;;;;;;76.45;35.65;;;5.60;99.90;;;;;;4894288;29;20052;-84
2022/03/25 08:08:49;;;;;;;82.80;38.67;;;5.80;99.90;;;;;;4880469;29;20048;-86
2022/03/25 08:11:18;;;;;;;75.28;35.05;;;5.90;99.90;;;;;;4913527;29;20048;-86
2022/03/25 08:13:44;;;;;;;79.57;35.25;;;6.00;99.90;;;;;;4889242;29;20036;-86
2022/03/25 08:16:10;;;;;;;71.72;33.47;;;6.20;99.90;;;;;;4905458;29;20056;-86
2022/03/25 08:18:35;;;;;;;85.28;36.28;;;6.40;99.90;;;;;;4912995;29;20434;-82
2022/03/25 08:21:02;;;;;;;78.07;35.38;;;6.50;99.90;;;;;;4912450;29;20059;-82
2022/03/25 08:28:58;;;;;;;69.35;32.72;;;6.80;99.90;;;;;;4903654;29;20060;-83
2022/03/25 08:31:24;;;;;;;69.15;32.60;;;6.80;99.90;;;;;;4909524;29;20095;-83
2022/03/25 08:33:50;;;;;;;68.20;32.45;;;7.00;99.90;;;;;;4861721;29;20144;-83
2022/03/25 08:36:17;;;;;;;63.10;30.95;;;7.10;99.90;;;;;;4877852;29;20146;-83
2022/03/25 08:38:44;;;;;;;69.20;31.30;;;7.10;99.90;;;;;;4892268;29;20055;-83
2022/03/25 08:41:09;;;;;;;67.32;32.50;;;7.30;99.90;;;;;;4879768;29;20062;-83
2022/03/25 08:43:35;;;;;;;70.55;33.08;;;7.30;99.90;;;;;;4880533;29;20048;-84
2022/03/25 08:46:03;;;;;;;63.92;30.05;;;7.40;99.90;;;;;;4897005;29;20481;-83
2022/03/25 08:48:29;;;;;;;59.75;29.27;;;7.50;99.90;;;;;;4904924;29;20481;-83
2022/03/25 08:50:55;;;;;;;62.47;31.27;;;7.50;99.90;;;;;;4895830;29;20055;-83
2022/03/25 08:53:21;;;;;;;63.65;32.58;;;7.70;99.90;;;;;;4897546;29;20056;-83
2022/03/25 08:55:47;;;;;;;82.55;35.67;;;7.70;99.90;;;;;;4899265;29;20405;-83
2022/03/25 08:58:13;;;;;;;64.60;32.25;;;7.80;99.90;;;;;;4915051;29;20143;-84
2022/03/25 09:00:41;;;;;;;60.00;31.55;;;7.90;99.90;;;;;;4916051;29;20110;-83
2022/03/25 09:03:07;;;;;;;68.70;31.33;;;8.00;99.90;;;;;;4899186;29;20052;-84
2022/03/25 09:05:33;;;;;;;66.70;31.58;;;8.00;99.90;;;;;;4899924;29;20044;-83
2022/03/25 09:07:59;;;;;;;65.05;32.35;;;8.10;99.90;;;;;;4915943;29;20051;-83
2022/03/25 09:10:24;;;;;;;59.72;33.00;;;8.20;99.90;;;;;;4885713;29;20051;-88
2022/03/25 09:12:50;;;;;;;65.90;31.10;;;8.50;99.90;;;;;;4897620;29;20052;-86
2022/03/25 09:15:16;;;;;;;65.35;33.50;;;8.50;99.90;;;;;;4882925;29;20041;-86
2022/03/25 09:17:44;;;;;;;;;;;8.60;99.90;;;;;;4897913;29;20079;-84
2022/03/25 09:20:11;;;;;;;67.20;32.08;;;8.70;99.90;;;;;;4878849;29;19966;-85
2022/03/25 09:22:37;;;;;;;63.42;32.30;;;8.70;99.90;;;;;;4909169;29;20067;-87
2022/03/25 09:25:04;;;;;;;65.50;32.60;;;9.00;99.90;;;;;;4898847;29;20036;-84
2022/03/25 09:27:30;;;;;;;62.95;31.70;;;9.00;99.90;;;;;;4915305;29;20055;-84
2022/03/25 09:29:56;;;;;;;65.88;34.33;;;9.10;99.90;;;;;;4915237;29;20059;-84
2022/03/25 09:32:22;;;;;;;61.30;33.88;;;9.30;99.90;;;;;;4883210;29;20553;-85
2022/03/25 09:37:37;;;;;;;67.95;33.20;;;9.50;99.90;;;;;;4895985;29;20409;-84
2022/03/25 09:40:14;;;;;;;65.13;31.13;;;9.60;99.90;;;;;;4907784;29;20545;-84
2022/03/25 09:42:41;;;;;;;62.60;32.38;;;9.70;99.90;;;;;;4914462;29;20067;-84
2022/03/25 09:45:09;;;;;;;65.60;32.90;;;9.80;99.90;;;;;;4914931;29;20143;-84
2022/03/25 09:47:36;;;;;;;62.00;32.08;;;10.00;99.90;;;;;;4898970;29;20055;-83
2022/03/25 09:50:03;;;;;;;65.05;33.13;;;10.10;99.90;;;;;;4883889;29;20048;-85
2022/03/25 09:52:31;;;;;;;65.68;33.70;;;10.20;99.90;;;;;;4902182;29;20051;-85
2022/03/25 09:54:58;;;;;;;59.33;31.70;;;10.30;99.90;;;;;;4902966;29;20542;-85
2022/03/25 09:57:26;;;;;;;63.10;32.30;;;10.50;99.90;;;;;;4888030;29;20049;-86
2022/03/25 09:59:54;;;;;;;61.33;30.65;;;10.70;99.90;;;;;;4895207;29;20051;-86
2022/03/25 10:02:20;;;;;;;63.42;32.70;;;10.80;99.90;;;;;;4905737;29;20059;-86
2022/03/25 10:04:48;;;;;;;58.58;31.60;;;10.90;99.90;;;;;;4880960;29;20048;-84
2022/03/25 10:07:27;;;;;;;59.88;31.48;;;11.00;99.90;;;;;;4895370;29;20056;-87
2022/03/25 10:10:15;;;;;;;58.92;33.22;;;11.10;99.90;;;;;;4883870;29;20048;-87
2022/03/25 10:12:44;;;;;;;58.70;30.83;;;11.20;99.90;;;;;;4897001;29;20052;-85
2022/03/25 10:15:17;;;;;;;54.50;30.17;;;11.30;99.90;;;;;;4907401;29;20053;-87
2022/03/25 10:17:47;;;;;;;55.67;30.30;;;11.40;99.90;;;;;;4899162;29;20486;-88
2022/03/25 10:20:13;;;;;;;63.15;30.38;;;11.50;99.90;;;;;;4898019;29;20052;-85
2022/03/25 10:22:40;;;;;;;55.50;31.30;;;11.70;99.90;;;;;;4914161;29;20059;-85
2022/03/25 10:25:09;;;;;;;55.72;30.00;;;11.80;99.90;;;;;;4913259;29;20099;-85
2022/03/25 10:27:35;;;;;;;56.20;29.25;;;11.90;99.90;;;;;;4897613;29;20052;-85
2022/03/25 10:30:05;;;;;;;55.92;29.20;;;12.00;99.90;;;;;;4898090;29;20371;-84
2022/03/25 10:32:38;;;;;;;62.63;30.98;;;12.10;99.90;;;;;;4898060;29;20056;-85
2022/03/25 10:35:09;;;;;;;53.58;29.83;;;12.30;99.90;;;;;;4913192;29;20087;-85
2022/03/25 10:37:58;;;;;;;58.83;30.23;;;12.40;99.90;;;;;;4897853;29;20393;-84
2022/03/25 10:40:24;;;;;;;55.85;29.65;;;12.50;99.90;;;;;;4894311;29;20059;-85
2022/03/25 10:43:06;;;;;;;;;;;12.60;99.90;;;;;;4891637;29;20059;-85
2022/03/25 10:45:31;;;;;;;55.10;27.05;;;12.60;99.90;;;;;;4895211;29;19931;-85
2022/03/25 10:48:14;;;;;;;57.55;30.45;;;12.70;99.90;;;;;;4862829;29;20052;-85
2022/03/25 10:51:07;;;;;;;51.33;28.05;;;12.80;99.90;;;;;;4895109;29;20133;-85
2022/03/25 10:53:38;;;;;;;51.55;27.92;;;12.90;99.90;;;;;;4910719;29;20055;-85
2022/03/25 10:56:10;;;;;;;52.78;29.83;;;13.00;99.90;;;;;;4894219;29;20052;-85
2022/03/25 10:58:37;;;;;;;53.67;30.10;;;13.10;99.90;;;;;;4878794;29;20057;-84
2022/03/25 11:01:06;;;;;;;52.40;29.73;;;13.20;99.90;;;;;;4894465;29;20135;-85
2022/03/25 11:03:31;;;;;;;54.92;29.23;;;13.30;99.90;;;;;;4907085;29;20058;-85
2022/03/25 11:05:58;;;;;;;58.55;29.45;;;13.40;99.90;;;;;;4913217;29;20409;-85
2022/03/25 11:08:23;;;;;;;;;;;13.50;99.90;;;;;;4891100;29;20139;-85
2022/03/25 11:10:51;;;;;;;55.03;29.20;;;13.70;99.90;;;;;;4894488;29;20006;-85
2022/03/25 11:13:17;;;;;;;56.75;28.23;;;13.80;99.90;;;;;;4893391;29;20060;-85
2022/03/25 11:15:46;;;;;;;48.10;26.45;;;14.00;99.90;;;;;;4848140;29;20060;-85
2022/03/25 11:18:13;;;;;;;52.75;28.15;;;14.10;99.90;;;;;;4878324;29;20052;-85
2022/03/25 11:20:40;;;;;;;53.65;27.45;;;14.20;99.90;;;;;;4894570;29;20095;-85
2022/03/25 11:23:27;;;;;;;50.17;27.88;;;14.40;99.90;;;;;;4898388;29;20453;-85
2022/03/25 11:25:56;;;;;;;52.58;27.25;;;14.50;99.90;;;;;;4896366;29;20135;-85
2022/03/25 11:28:31;;;;;;;48.17;26.88;;;14.70;99.90;;;;;;4912712;29;20109;-85
2022/03/25 11:31:00;;;;;;;44.60;26.25;;;14.80;99.90;;;;;;4913134;29;20127;-85
2022/03/25 11:33:25;;;;;;;55.55;28.33;;;15.00;99.90;;;;;;4912292;29;20052;-85
2022/03/25 11:36:15;;;;;;;49.97;25.38;;;15.20;99.90;;;;;;4897591;29;20071;-85
2022/03/25 11:38:42;;;;;;;46.75;26.42;;;15.30;97.80;;;;;;4878854;29;20061;-86
2022/03/25 11:41:26;;;;;;;45.30;26.23;;;15.50;95.80;;;;;;4893762;29;20052;-85
2022/03/25 11:44:18;;;;;;;48.05;26.38;;;15.60;94.80;;;;;;4891548;29;20052;-85
2022/03/25 11:46:59;;;;;;;49.85;25.35;;;15.80;93.40;;;;;;4899778;29;20067;-85
2022/03/25 11:49:26;;;;;;;48.22;25.67;;;16.00;90.10;;;;;;4893954;29;20505;-86
2022/03/25 11:51:52;;;;;;;46.35;25.92;;;16.10;89.20;;;;;;4883313;29;20413;-85
2022/03/25 11:54:40;;;;;;;44.72;25.73;;;16.40;87.50;;;;;;4881104;29;20056;-85
2022/03/25 11:57:21;;;;;;;46.10;24.77;;;16.60;87.50;;;;;;4877097;29;20130;-86
2022/03/25 11:59:52;;;;;;;39.92;24.25;;;16.80;88.20;;;;;;4910289;29;20051;-85
2022/03/25 12:02:31;;;;;;;47.72;26.60;;;17.10;87.00;;;;;;4909185;29;20206;-85
2022/03/25 12:04:59;;;;;;;43.67;25.70;;;17.40;88.20;;;;;;4909855;29;20049;-85
2022/03/25 12:07:25;;;;;;;46.95;25.23;;;17.80;87.80;;;;;;4909786;29;20048;-85
2022/03/25 12:09:50;;;;;;;;;;;18.00;84.80;;;;;;4913466;29;20051;-86
2022/03/25 12:12:16;;;;;;;46.03;25.27;;;18.30;85.30;;;;;;4894769;29;19954;-89
2022/03/25 12:15:00;;;;;;;;;;;18.50;88.60;;;;;;4914610;29;20060;-82
2022/03/25 12:17:26;;;;;;;41.33;25.08;;;18.80;79.50;;;;;;4899378;29;19930;-86
2022/03/25 12:19:54;;;;;;;;;;;18.90;86.50;;;;;;4901709;29;20044;-85
2022/03/25 12:22:19;;;;;;;42.47;24.00;;;19.10;81.30;;;;;;4900425;29;19955;-85
2022/03/25 12:24:46;;;;;;;41.97;22.52;;;19.30;80.50;;;;;;4903590;29;20080;-85
2022/03/25 12:27:12;;;;;;;39.22;21.77;;;19.40;76.80;;;;;;4896014;29;20088;-85
2022/03/25 12:29:38;;;;;;;35.97;20.83;;;19.60;73.80;;;;;;4897844;29;20529;-85
2022/03/25 12:32:07;;;;;;;35.15;22.05;;;19.80;71.30;;;;;;4902340;29;21018;-85
2022/03/25 12:34:41;;;;;;;37.97;22.08;;;19.80;72.90;;;;;;4884579;29;20504;-86
2022/03/25 12:37:10;;;;;;;38.42;21.88;;;20.10;70.20;;;;;;4915503;29;20104;-85
2022/03/25 12:39:37;;;;;;;40.05;22.15;;;20.20;69.50;;;;;;4900769;29;20502;-86
2022/03/25 12:42:12;;;;;;;34.58;20.85;;;20.40;67.50;;;;;;4908515;29;20098;-86
2022/03/25 12:44:38;;;;;;;39.30;21.77;;;20.40;65.50;;;;;;4915785;29;20102;-86